Flight Track Log - Related Links

Times and Time Zones

All times are in EDT time to prevent confusion due to time zone crossing. See the N8147X flight status page for this flight to view local times or setup timezone preferences in your user account.

Time Position Orientation Groundspeed Altitude Reporting Facility
EDT Latitude Longitude Course Direction KTS MPH feet Rate Location/Type
Fri 06:27:00 PM 40.2584 -76.0916 37° Northeast  Level FlightAware Approximate
Fri 06:28:00 PM 40.2830 -76.0589 49° Northeast  Level FlightAware Approximate
Fri 06:28:32 PM 40.2589 -76.1211 46° Northeast 103 119 5,100  Level New York Center
Fri 06:29:00 PM 40.3050 -76.0233 57° Northeast  Level FlightAware Approximate
Fri 06:29:29 PM 40.2769 -76.0953 48° Northeast 108 124 5,500  Level New York Center
Fri 06:30:00 PM 40.3296 -75.9935 21° North  Level FlightAware Approximate
Fri 06:30:30 PM 40.3011 -76.0669 42° Northeast 108 124 6,000  Level New York Center
Fri 06:31:00 PM 40.3592 -75.9707 46° Northeast  Level FlightAware Approximate
Fri 06:31:30 PM 40.3233 -76.0361 47° Northeast 108 124 6,500  Level New York Center
Fri 06:32:00 PM 40.3834 -75.9373 46° Northeast  Level FlightAware Approximate
Fri 06:32:31 PM 40.3456 -76.0050 47° Northeast 108 124 7,000  Level New York Center
Fri 06:33:00 PM 40.4075 -75.9040 46° Northeast  Level FlightAware Approximate
Fri 06:33:29 PM 40.3675 -75.9767 45° Northeast 108 124 7,400  Level New York Center
Fri 06:34:00 PM 40.4317 -75.8705 46° Northeast  Level FlightAware Approximate
Fri 06:34:30 PM 40.3897 -75.9458 47° Northeast 108 124 7,800  Level New York Center
Fri 06:35:31 PM 40.4142 -75.9150 44° Northeast 108 124 8,300 446 Climbing New York Center
Fri 06:36:31 PM 40.4319 -75.8861 51° Northeast 108 124 8,700 350 Climbing New York Center
Fri 06:37:31 PM 40.4542 -75.8553 47° Northeast 108 124 9,000 153 Climbing New York Center
Fri 06:38:29 PM 40.4828 -75.8192 44° Northeast 118 136 9,000 50 Level New York Center
Fri 06:39:30 PM 40.5094 -75.7800 48° Northeast 131 151 9,100 49 Climbing New York Center
Fri 06:40:31 PM 40.5336 -75.7517 42° Northeast 136 157 9,100  Level New York Center
Fri 06:41:29 PM 40.5603 -75.7100 50° Northeast 137 158 9,100 51 Level New York Center
Fri 06:42:29 PM 40.5892 -75.6711 46° Northeast 153 176 9,200 200 Climbing New York Center
Fri 06:43:29 PM 40.6114 -75.6369 49° Northeast 135 155 9,500 200 Climbing New York Center
Fri 06:44:29 PM 40.6358 -75.6006 48° Northeast 130 150 9,600 50 Climbing New York Center
Fri 06:45:30 PM 40.6581 -75.5667 49° Northeast 130 150 9,600  Level New York Center
Fri 06:46:31 PM 40.6806 -75.5244 55° Northeast 137 158 9,600  Level New York Center
Fri 06:47:29 PM 40.6969 -75.4761 66° East 137 158 9,600  Level New York Center
Fri 06:48:30 PM 40.7156 -75.4281 63° Northeast 137 158 9,600 -50 Level New York Center
Fri 06:49:28 PM 40.7319 -75.3800 66° East 137 158 9,500 -50 Descending New York Center
Fri 06:50:30 PM 40.7508 -75.3264 65° Northeast 137 158 9,500  Level New York Center
Fri 06:51:30 PM 40.7672 -75.2811 64° Northeast 132 152 9,500  Level New York Center
Fri 06:52:29 PM 40.7836 -75.2328 66° East 132 152 9,500  Level New York Center
Fri 06:53:29 PM 40.7997 -75.1900 64° Northeast 137 158 9,500 50 Level New York Center
Fri 06:54:29 PM 40.8161 -75.1417 66° East 137 158 9,600 50 Climbing New York Center
Fri 06:55:30 PM 40.8347 -75.0881 65° Northeast 143 165 9,600 50 Level New York Center
Fri 06:56:30 PM 40.8511 -75.0397 66° East 143 165 9,700  Climbing New York Center
Fri 06:57:31 PM 40.8697 -74.9886 64° Northeast 150 173 9,600 -99 Descending New York Center
Fri 06:58:31 PM 40.8836 -74.9456 67° East 145 167 9,500 -51 Descending New York Center
Fri 06:59:29 PM 40.9022 -74.8919 65° Northeast 145 167 9,500  Level New York Center
Fri 07:00:30 PM 40.9186 -74.8353 69° East 153 176 9,500  Level New York Center
Fri 07:01:31 PM 40.9347 -74.7922 64° Northeast 147 169 9,500  Level New York Center
Fri 07:02:31 PM 40.9511 -74.7383 68° East 147 169 9,500  Level New York Center
Fri 07:03:29 PM 40.9672 -74.6953 64° Northeast 147 169 9,500  Level New York Center
Fri 07:04:30 PM 40.9856 -74.6414 66° East 147 169 9,500  Level New York Center
Fri 07:05:30 PM 40.9994 -74.5981 67° East 147 169 9,500  Level New York Center
Fri 07:06:31 PM 41.0200 -74.5442 63° Northeast 147 169 9,500  Level New York Center
Fri 07:07:31 PM 41.0319 -74.5008 70° East 147 169 9,500  Level New York Center
Fri 07:08:31 PM 41.0500 -74.4553 62° Northeast 147 169 9,500 -34 Level New York Center
Fri 07:10:28 PM 41.0833 -74.3500 67° East 142 163 9,400 -34 Descending New York TRACON
Fri 07:11:28 PM 41.1000 -74.3000 66° East 142 163 9,400 50 Level New York TRACON
Fri 07:12:28 PM 41.1167 -74.2500 66° East 144 166 9,500 -200 Climbing New York TRACON
Fri 07:13:28 PM 41.1333 -74.2000 66° East 151 174 9,000 -619 Descending New York TRACON
Fri 07:14:34 PM 41.1500 -74.1500 66° East 166 191 8,200 -810 Descending New York TRACON
Fri 07:15:34 PM 41.1667 -74.1000 66° East 157 181 7,300 -750 Descending New York TRACON
Fri 07:16:34 PM 41.1833 -74.0500 66° East 148 170 6,700 -600 Descending New York TRACON
Fri 07:17:34 PM 41.2000 -74.0000 66° East 143 165 6,100 -579 Descending New York TRACON
Fri 07:18:28 PM 41.2167 -73.9500 66° East 144 166 5,600 -579 Descending New York TRACON
Fri 07:19:28 PM 41.2333 -73.9000 66° East 140 161 5,000 -600 Descending New York TRACON
Fri 07:20:28 PM 41.2500 -73.8500 66° East 138 159 4,400 -550 Descending New York TRACON
Fri 07:21:28 PM 41.2667 -73.8167 56° Northeast 138 159 3,900 -550 Descending New York TRACON
Fri 07:22:28 PM 41.2833 -73.7667 66° East 137 158 3,300 -500 Descending New York TRACON
Fri 07:23:28 PM 41.3000 -73.7167 66° East 137 158 2,900 -400 Descending New York TRACON
Fri 07:24:28 PM 41.3167 -73.6667 66° East 132 152 2,500 -400 Descending New York TRACON
Fri 07:25:28 PM 41.3167 -73.6333 90° East 130 150 2,100 -250 Descending New York TRACON
Fri 07:26:28 PM 41.3333 -73.5833 66° East 112 129 2,000 -50 Descending New York TRACON
Fri 07:27:28 PM 41.3500 -73.5500 56° Northeast 104 120 2,000 -50 Level New York TRACON
Fri 07:28:28 PM 41.3500 -73.5167 90° East 103 119 1,900 -200 Descending New York TRACON
Fri 07:29:28 PM 41.3500 -73.4833 90° East 93 107 1,600 -150 Descending New York TRACON
Fri 07:30:28 PM 41.3667 -73.4500 56° Northeast 88 101 1,600 -50 Level New York TRACON
Fri 07:31:28 PM 41.3833 -73.4333 37° Northeast 98 113 1,500 -100 Descending New York TRACON
Fri 07:33:00 PM 41.3667 -73.4667 236° Southwest  Level FlightAware Approximate
Fri 07:40:00 PM 41.3715 -73.4822 236° Southwest  Level Estimated
Fri 07:41:00 PM 41.3715 -73.4822 236° Southwest  Level Estimated
Fri 07:42:00 PM 41.3715 -73.4822 236° Southwest  Level Estimated

Login

Don't have an account? Register now (free) for customized features, flight alerts, and more!